createdAt,value
2019-03-05T00:01:16.924Z,6.33
2019-03-05T00:03:47.189Z,6.34
2019-03-05T00:06:20.574Z,6.29
2019-03-05T00:08:55.568Z,6.34
2019-03-05T00:11:24.961Z,6.01
2019-03-05T00:13:55.557Z,6.21
2019-03-05T00:16:24.922Z,6.32
2019-03-05T00:18:54.320Z,6.02
2019-03-05T00:21:23.419Z,6.16
2019-03-05T00:23:58.499Z,6.57
2019-03-05T00:26:33.562Z,6.32
2019-03-05T00:29:20.292Z,6.36
2019-03-05T00:31:50.745Z,6.18
2019-03-05T00:34:37.924Z,6.21
2019-03-05T00:37:33.189Z,6.13
2019-03-05T00:40:19.991Z,6.05
2019-03-05T00:43:13.097Z,6.25
2019-03-05T00:45:58.877Z,6.09
2019-03-05T00:49:14.805Z,6.35
2019-03-05T00:52:13.286Z,6.52
2019-03-05T00:55:27.148Z,6.27
2019-03-05T00:58:28.043Z,6.61
2019-03-05T01:01:15.878Z,6.63
2019-03-05T01:04:36.922Z,6.63
2019-03-05T01:07:08.754Z,6.33
2019-03-05T01:09:38.328Z,6.21
2019-03-05T01:12:09.320Z,6.12
2019-03-05T01:14:39.654Z,5.86
2019-03-05T01:17:09.923Z,5.82
2019-03-05T01:19:39.777Z,5.85
2019-03-05T01:22:12.451Z,5.93
2019-03-05T01:24:41.675Z,5.79
2019-03-05T01:27:10.833Z,5.92
2019-03-05T01:29:42.030Z,5.80
2019-03-05T01:32:37.218Z,5.83
2019-03-05T01:35:12.903Z,5.86
2019-03-05T01:37:43.491Z,5.76
2019-03-05T01:40:37.017Z,5.80
2019-03-05T01:43:06.190Z,5.63
2019-03-05T01:45:36.684Z,5.81
2019-03-05T01:48:06.238Z,5.83
2019-03-05T01:50:35.374Z,5.89
2019-03-05T01:53:05.848Z,5.73
2019-03-05T01:55:34.936Z,5.69
2019-03-05T01:58:05.854Z,5.66
2019-03-05T02:00:38.964Z,5.63
2019-03-05T02:03:08.079Z,5.64
2019-03-05T02:05:40.195Z,5.56
2019-03-05T02:08:12.440Z,5.57
2019-03-05T02:10:42.140Z,5.47
2019-03-05T02:13:12.420Z,5.58
2019-03-05T02:15:43.736Z,5.67
2019-03-05T02:18:27.924Z,5.62
2019-03-05T02:20:58.293Z,5.48
2019-03-05T02:23:32.346Z,5.52
2019-03-05T02:26:37.907Z,5.55
2019-03-05T02:29:40.939Z,5.73
2019-03-05T02:32:43.201Z,5.74
2019-03-05T02:35:30.825Z,5.91
2019-03-05T02:38:41.172Z,-3.57
2019-03-05T02:41:38.827Z,6.25
2019-03-05T02:44:54.628Z,5.78
2019-03-05T02:48:09.714Z,6.28
2019-03-05T02:51:20.056Z,6.01
2019-03-05T02:54:16.335Z,6.17
2019-03-05T02:57:12.272Z,6.12
2019-03-05T02:59:43.211Z,5.91
2019-03-05T03:02:33.198Z,5.97
2019-03-05T03:05:41.385Z,5.86
2019-03-05T03:07:58.547Z,5.86
2019-03-05T03:10:27.685Z,5.70
2019-03-05T03:12:57.013Z,5.69
2019-03-05T03:15:50.413Z,5.74
2019-03-05T03:18:20.782Z,5.53
2019-03-05T03:20:54.561Z,5.53
2019-03-05T03:23:26.849Z,5.60
2019-03-05T03:25:59.010Z,5.74
2019-03-05T03:28:28.200Z,5.76
2019-03-05T03:31:02.707Z,5.80
2019-03-05T03:33:31.863Z,5.57
2019-03-05T03:36:01.026Z,5.76
2019-03-05T03:38:30.147Z,5.82
2019-03-05T03:41:00.372Z,5.85
2019-03-05T03:43:29.528Z,5.53
2019-03-05T03:45:58.771Z,5.62
2019-03-05T03:48:37.671Z,5.70
2019-03-05T03:51:08.974Z,5.56
2019-03-05T03:53:38.346Z,5.54
2019-03-05T03:56:10.181Z,5.75
2019-03-05T03:58:42.406Z,5.80
2019-03-05T04:01:11.653Z,5.78
2019-03-05T04:03:44.971Z,5.99
2019-03-05T04:06:14.314Z,5.72
2019-03-05T04:08:43.637Z,5.64
2019-03-05T04:11:12.963Z,5.75
2019-03-05T04:13:42.134Z,5.95
2019-03-05T04:16:14.860Z,5.86
2019-03-05T04:18:45.495Z,6.03
2019-03-05T04:21:20.178Z,5.84
2019-03-05T04:23:49.498Z,5.93
2019-03-05T04:26:21.058Z,5.86
2019-03-05T04:28:50.346Z,6.08
2019-03-05T04:31:22.615Z,5.90
2019-03-05T04:33:54.625Z,6.25
2019-03-05T04:36:25.599Z,6.07
2019-03-05T04:38:55.128Z,6.01
2019-03-05T04:41:30.480Z,6.19
2019-03-05T04:43:59.928Z,6.19
2019-03-05T04:46:36.595Z,5.90
2019-03-05T04:49:33.930Z,5.73
2019-03-05T04:52:06.007Z,5.88
2019-03-05T04:54:36.761Z,5.56
2019-03-05T04:57:07.719Z,5.65
2019-03-05T04:59:37.099Z,5.74
2019-03-05T05:02:07.105Z,5.37
2019-03-05T05:04:36.249Z,5.41
2019-03-05T05:07:05.569Z,5.51
2019-03-05T05:09:42.008Z,5.53
2019-03-05T05:12:11.349Z,5.49
2019-03-05T05:14:40.449Z,5.41
2019-03-05T05:17:12.802Z,5.69
2019-03-05T05:19:44.283Z,5.41
2019-03-05T05:22:13.625Z,5.36
2019-03-05T05:24:44.355Z,5.46
2019-03-05T05:27:19.942Z,5.43
2019-03-05T05:29:49.073Z,5.40
2019-03-05T05:32:18.355Z,5.36
2019-03-05T05:34:50.442Z,5.45
2019-03-05T05:37:30.636Z,5.47
2019-03-05T05:40:22.288Z,5.46
2019-03-05T05:42:53.938Z,5.42
2019-03-05T05:45:24.686Z,5.38
2019-03-05T05:47:59.888Z,5.49
2019-03-05T05:50:30.683Z,5.43
2019-03-05T05:53:02.339Z,5.45
2019-03-05T05:55:31.528Z,5.47
2019-03-05T05:58:05.721Z,5.55
2019-03-05T06:00:42.317Z,5.47
2019-03-05T06:03:11.459Z,5.67
2019-03-05T06:05:40.589Z,3.49
2019-03-05T06:08:10.037Z,5.31
2019-03-05T06:10:39.619Z,5.40
2019-03-05T06:13:10.844Z,5.34
2019-03-05T06:15:39.659Z,5.29
2019-03-05T06:18:08.827Z,5.43
2019-03-05T06:20:37.964Z,5.44
2019-03-05T06:23:09.108Z,5.46
2019-03-05T06:25:38.232Z,5.40
2019-03-05T06:28:10.236Z,5.48
2019-03-05T06:30:39.478Z,5.52
2019-03-05T06:33:15.182Z,5.66
2019-03-05T06:35:45.615Z,5.60
2019-03-05T06:38:17.599Z,5.84
2019-03-05T06:40:48.229Z,5.72
2019-03-05T06:43:17.405Z,5.74
2019-03-05T06:45:46.533Z,5.81
2019-03-05T06:48:17.769Z,6.00
2019-03-05T06:50:49.632Z,5.82
2019-03-05T06:53:18.824Z,5.69
2019-03-05T06:55:48.048Z,5.69
2019-03-05T06:58:17.275Z,5.80
2019-03-05T07:00:57.472Z,5.74
2019-03-05T07:03:31.864Z,5.88
2019-03-05T07:06:36.455Z,5.72
2019-03-05T07:09:20.022Z,5.78
2019-03-05T07:12:41.111Z,5.69
2019-03-05T07:15:55.674Z,5.59
2019-03-05T07:18:34.301Z,5.67
2019-03-05T07:21:36.833Z,5.79
2019-03-05T07:24:47.744Z,5.64
2019-03-05T07:27:29.996Z,5.85
2019-03-05T07:30:09.199Z,5.75
2019-03-05T07:32:38.693Z,5.81
2019-03-05T07:35:09.509Z,5.99
2019-03-05T07:37:41.547Z,6.17
2019-03-05T07:40:24.704Z,6.03
2019-03-05T07:42:53.877Z,6.17
2019-03-05T07:45:23.899Z,6.25
2019-03-05T07:47:53.053Z,6.31
2019-03-05T07:50:22.232Z,6.57
2019-03-05T07:52:51.359Z,6.69
2019-03-05T07:55:34.104Z,6.39
2019-03-05T07:58:03.739Z,6.60
2019-03-05T08:00:36.064Z,6.67
2019-03-05T08:03:08.253Z,6.65
2019-03-05T08:05:40.927Z,6.82
2019-03-05T08:08:45.952Z,6.75
2019-03-05T08:11:15.300Z,6.82
2019-03-05T08:14:25.341Z,6.81
2019-03-05T08:16:57.733Z,6.97
2019-03-05T08:19:27.102Z,6.99
2019-03-05T08:21:59.077Z,6.90
2019-03-05T08:24:28.398Z,7.17
2019-03-05T08:27:00.293Z,7.05
2019-03-05T08:29:35.392Z,7.19
2019-03-05T08:32:04.829Z,7.04
2019-03-05T08:34:36.616Z,7.28
2019-03-05T08:37:30.099Z,7.53
2019-03-05T08:39:59.295Z,7.17
2019-03-05T08:42:28.499Z,7.59
2019-03-05T08:44:59.358Z,7.54
2019-03-05T08:47:28.655Z,7.39
2019-03-05T08:49:59.840Z,7.72
2019-03-05T08:52:29.718Z,7.70
2019-03-05T08:55:00.369Z,7.53
2019-03-05T08:57:32.515Z,7.56
2019-03-05T09:00:05.981Z,7.59
2019-03-05T09:02:47.998Z,7.73
2019-03-05T09:05:13.807Z,7.56
2019-03-05T09:07:43.137Z,7.58
2019-03-05T09:10:16.000Z,7.86
2019-03-05T09:12:45.119Z,7.93
2019-03-05T09:15:16.167Z,7.84
2019-03-05T09:17:45.566Z,7.99
2019-03-05T09:20:18.743Z,7.91
2019-03-05T09:22:50.440Z,7.61
2019-03-05T09:25:21.569Z,7.82
2019-03-05T09:27:50.704Z,8.01
2019-03-05T09:30:22.189Z,8.35
2019-03-05T09:32:52.289Z,8.40
2019-03-05T09:35:21.690Z,8.45
2019-03-05T09:37:50.858Z,8.42
2019-03-05T09:40:27.465Z,8.71
2019-03-05T09:43:05.933Z,8.36
2019-03-05T09:45:36.156Z,8.61
2019-03-05T09:48:11.859Z,8.35
2019-03-05T09:50:41.159Z,8.19
2019-03-05T09:53:11.331Z,8.26
2019-03-05T09:55:46.606Z,8.34
2019-03-05T09:58:24.144Z,8.31
2019-03-05T10:00:53.319Z,8.47
2019-03-05T10:03:22.495Z,8.77
2019-03-05T10:05:51.601Z,8.76
2019-03-05T10:08:32.506Z,8.67
2019-03-05T10:11:07.049Z,8.61
2019-03-05T10:13:43.570Z,8.68
2019-03-05T10:16:12.970Z,8.74
2019-03-05T10:18:45.031Z,8.98
2019-03-05T10:21:15.970Z,9.14
2019-03-05T10:23:54.580Z,9.09
2019-03-05T10:26:27.515Z,9.09
2019-03-05T10:28:57.806Z,8.69
2019-03-05T10:31:27.221Z,8.56
2019-03-05T10:33:58.470Z,8.82
2019-03-05T10:36:31.030Z,8.71
2019-03-05T10:39:01.513Z,8.53
2019-03-05T10:41:31.534Z,8.70
2019-03-05T10:44:04.899Z,8.49
2019-03-05T10:46:34.379Z,8.39
2019-03-05T10:49:03.785Z,8.49
2019-03-05T10:51:33.688Z,8.31
2019-03-05T10:54:04.073Z,8.61
2019-03-05T10:56:38.637Z,8.58
2019-03-05T10:59:07.941Z,8.64
2019-03-05T11:01:38.292Z,8.67
2019-03-05T11:04:07.675Z,8.80
2019-03-05T11:06:40.749Z,8.94
2019-03-05T11:09:10.960Z,9.16
2019-03-05T11:11:40.315Z,9.09
2019-03-05T11:14:10.826Z,9.21
2019-03-05T11:16:40.350Z,8.97
2019-03-05T11:19:09.787Z,9.06
2019-03-05T11:21:40.046Z,9.17
2019-03-05T11:24:13.652Z,9.01
2019-03-05T11:26:46.237Z,9.07
2019-03-05T11:29:16.087Z,9.00
2019-03-05T11:31:45.544Z,9.13
2019-03-05T11:34:19.212Z,9.59
2019-03-05T11:36:48.372Z,9.45
2019-03-05T11:39:21.105Z,9.12
2019-03-05T11:41:51.760Z,6.93
2019-03-05T11:44:21.043Z,9.37
2019-03-05T11:46:50.259Z,9.56
2019-03-05T11:49:20.709Z,9.29
2019-03-05T11:51:59.585Z,9.16
2019-03-05T11:54:32.807Z,9.03
2019-03-05T11:57:09.528Z,8.82
2019-03-05T11:59:41.651Z,8.99
2019-03-05T12:02:21.403Z,9.16
2019-03-05T12:04:50.562Z,8.55
2019-03-05T12:07:20.956Z,8.73
2019-03-05T12:09:50.557Z,8.91
2019-03-05T12:12:21.450Z,8.72
2019-03-05T12:14:51.531Z,8.73
2019-03-05T12:17:23.034Z,8.65
2019-03-05T12:19:53.220Z,8.78
2019-03-05T12:22:27.996Z,8.64
2019-03-05T12:25:10.064Z,8.76
2019-03-05T12:27:39.181Z,8.60
2019-03-05T12:30:10.219Z,8.57
2019-03-05T12:32:39.527Z,8.60
2019-03-05T12:35:09.226Z,8.78
2019-03-05T12:37:40.063Z,8.91
2019-03-05T12:40:12.931Z,8.94
2019-03-05T12:42:47.764Z,8.82
2019-03-05T12:45:18.643Z,8.73
2019-03-05T12:47:49.959Z,8.43
2019-03-05T12:50:37.699Z,8.52
2019-03-05T12:53:17.481Z,8.68
2019-03-05T12:55:46.660Z,8.42
2019-03-05T12:58:26.025Z,8.33
2019-03-05T13:00:47.287Z,8.43
2019-03-05T13:03:26.070Z,8.43
2019-03-05T13:05:57.296Z,6.28
2019-03-05T13:08:28.618Z,8.01
2019-03-05T13:10:59.339Z,7.96
2019-03-05T13:13:37.483Z,8.02
2019-03-05T13:16:16.009Z,8.30
2019-03-05T13:18:45.246Z,7.98
2019-03-05T13:21:14.460Z,7.88
2019-03-05T13:23:48.392Z,7.98
2019-03-05T13:26:17.810Z,7.83
2019-03-05T13:28:48.689Z,8.01
2019-03-05T13:31:19.435Z,7.78
2019-03-05T13:33:53.843Z,7.46
2019-03-05T13:36:26.811Z,7.44
2019-03-05T13:39:01.988Z,7.53
2019-03-05T13:41:34.494Z,7.67
2019-03-05T13:44:08.088Z,7.43
2019-03-05T13:46:38.910Z,7.46
2019-03-05T13:49:27.661Z,7.67
2019-03-05T13:52:35.957Z,7.88
2019-03-05T13:55:44.048Z,7.98
2019-03-05T13:59:09.742Z,7.88
2019-03-05T14:01:39.246Z,7.50
2019-03-05T14:04:16.895Z,7.63
2019-03-05T14:07:30.326Z,7.52
2019-03-05T14:10:05.678Z,7.59
2019-03-05T14:12:33.255Z,7.67
2019-03-05T14:15:04.863Z,7.53
2019-03-05T14:17:43.612Z,7.89
2019-03-05T14:20:16.250Z,7.56
2019-03-05T14:22:49.948Z,1.48
2019-03-05T14:25:20.355Z,7.76
2019-03-05T14:27:52.414Z,7.29
2019-03-05T14:30:22.174Z,7.28
2019-03-05T14:32:51.326Z,7.11
2019-03-05T14:35:22.626Z,7.03
2019-03-05T14:37:54.759Z,6.95
2019-03-05T14:40:32.126Z,7.10
2019-03-05T14:43:01.776Z,7.11
2019-03-05T14:45:41.292Z,7.04
2019-03-05T14:48:11.798Z,7.22
2019-03-05T14:50:42.529Z,7.42
2019-03-05T14:53:11.716Z,7.45
2019-03-05T14:55:40.895Z,7.22
2019-03-05T14:58:13.830Z,7.34
2019-03-05T15:00:48.590Z,5.28
2019-03-05T15:03:20.875Z,7.34
2019-03-05T15:05:50.789Z,7.52
2019-03-05T15:08:19.968Z,6.98
2019-03-05T15:10:49.134Z,7.39
2019-03-05T15:13:20.067Z,7.77
2019-03-05T15:15:49.237Z,7.50
2019-03-05T15:18:20.543Z,7.45
2019-03-05T15:20:58.784Z,7.28
2019-03-05T15:23:33.358Z,7.72
2019-03-05T15:26:02.834Z,7.94
2019-03-05T15:28:34.205Z,7.82
2019-03-05T15:31:03.413Z,7.72
2019-03-05T15:33:32.574Z,7.50
2019-03-05T15:36:01.765Z,7.41
2019-03-05T15:38:33.330Z,7.72
2019-03-05T15:41:02.628Z,7.86
2019-03-05T15:43:31.828Z,7.62
2019-03-05T15:46:00.992Z,7.91
2019-03-05T15:48:31.504Z,8.05
2019-03-05T15:51:01.412Z,7.68
2019-03-05T15:53:34.031Z,7.51
2019-03-05T15:56:04.602Z,7.58
2019-03-05T15:58:33.959Z,7.25
2019-03-05T16:01:03.127Z,7.44
2019-03-05T16:03:32.549Z,7.10
2019-03-05T16:06:03.487Z,7.14
2019-03-05T16:08:36.270Z,6.67
2019-03-05T16:11:05.439Z,6.66
2019-03-05T16:13:34.638Z,6.82
2019-03-05T16:16:04.478Z,6.60
2019-03-05T16:18:33.638Z,6.73
2019-03-05T16:21:06.786Z,6.64
2019-03-05T16:23:34.771Z,6.28
2019-03-05T16:26:03.935Z,6.27
2019-03-05T16:28:34.514Z,6.22
2019-03-05T16:31:21.894Z,6.21
2019-03-05T16:34:13.209Z,6.20
2019-03-05T16:37:14.536Z,6.27
2019-03-05T16:40:12.539Z,6.18
2019-03-05T16:43:02.501Z,6.02
2019-03-05T16:45:48.745Z,6.03
2019-03-05T16:48:39.002Z,6.12
2019-03-05T16:51:31.300Z,5.97
2019-03-05T16:54:28.381Z,6.05
2019-03-05T16:57:28.551Z,5.98
2019-03-05T17:00:15.505Z,6.09
2019-03-05T17:03:02.175Z,6.38
2019-03-05T17:05:58.614Z,6.30
2019-03-05T17:09:04.730Z,6.33
2019-03-05T17:12:02.473Z,-3.95
2019-03-05T17:14:34.798Z,6.32
2019-03-05T17:17:04.232Z,6.20
2019-03-05T17:19:33.342Z,6.23
2019-03-05T17:22:04.529Z,6.08
2019-03-05T17:24:38.674Z,6.15
2019-03-05T17:27:10.261Z,6.33
2019-03-05T17:29:41.649Z,6.25
2019-03-05T17:32:16.791Z,6.40
2019-03-05T17:34:47.723Z,6.28
2019-03-05T17:37:16.864Z,6.25
2019-03-05T17:39:50.899Z,6.01
2019-03-05T17:42:23.657Z,6.16
2019-03-05T17:44:52.961Z,6.05
2019-03-05T17:47:25.074Z,6.24
2019-03-05T17:49:55.317Z,6.15
2019-03-05T17:52:28.052Z,6.21
2019-03-05T17:54:57.132Z,6.40
2019-03-05T17:57:26.386Z,6.27
2019-03-05T17:59:55.553Z,6.41
2019-03-05T18:02:30.007Z,6.21
2019-03-05T18:04:59.204Z,6.56
2019-03-05T18:07:30.112Z,6.57
2019-03-05T18:09:59.303Z,6.56
2019-03-05T18:12:30.295Z,6.58
2019-03-05T18:14:59.872Z,6.70
2019-03-05T18:17:33.478Z,6.53
2019-03-05T18:20:02.500Z,6.45
2019-03-05T18:22:33.025Z,6.73
2019-03-05T18:25:02.632Z,6.70
2019-03-05T18:27:31.780Z,6.64
2019-03-05T18:30:00.952Z,6.58
2019-03-05T18:32:30.095Z,6.46
2019-03-05T18:35:03.598Z,6.50
2019-03-05T18:37:35.866Z,6.27
2019-03-05T18:40:05.865Z,6.31
2019-03-05T18:42:41.751Z,6.55
2019-03-05T18:45:14.349Z,6.18
2019-03-05T18:47:45.252Z,6.47
2019-03-05T18:50:17.443Z,6.54
2019-03-05T18:52:47.009Z,6.36
2019-03-05T18:55:19.280Z,6.32
2019-03-05T18:57:48.689Z,6.19
2019-03-05T19:00:22.551Z,6.86
2019-03-05T19:02:52.971Z,7.05
2019-03-05T19:05:24.027Z,6.67
2019-03-05T19:08:00.983Z,6.56
2019-03-05T19:10:33.697Z,6.63
2019-03-05T19:13:06.622Z,6.74
2019-03-05T19:15:37.393Z,6.85
2019-03-05T19:18:07.361Z,7.02
2019-03-05T19:20:39.013Z,6.78
2019-03-05T19:23:10.003Z,6.88
2019-03-05T19:25:40.670Z,6.86
2019-03-05T19:28:11.458Z,6.86
2019-03-05T19:31:03.581Z,7.21
2019-03-05T19:33:36.465Z,6.98
2019-03-05T19:36:05.719Z,6.83
2019-03-05T19:38:34.893Z,7.02
2019-03-05T19:41:05.105Z,6.97
2019-03-05T19:43:34.268Z,6.65
2019-03-05T19:46:04.565Z,6.85
2019-03-05T19:48:33.789Z,6.66
2019-03-05T19:51:02.913Z,7.05
2019-03-05T19:53:32.161Z,6.94
2019-03-05T19:56:01.332Z,6.73
2019-03-05T19:58:31.553Z,6.87
2019-03-05T20:01:12.529Z,6.81
2019-03-05T20:03:44.145Z,6.99
2019-03-05T20:06:16.544Z,6.98
2019-03-05T20:08:46.129Z,6.62
2019-03-05T20:11:17.380Z,6.85
2019-03-05T20:13:49.112Z,6.76
2019-03-05T20:16:19.762Z,7.01
2019-03-05T20:18:49.266Z,7.09
2019-03-05T20:21:18.457Z,6.93
2019-03-05T20:23:47.661Z,7.07
2019-03-05T20:26:16.810Z,6.99
2019-03-05T20:28:46.072Z,7.48
2019-03-05T20:31:15.384Z,7.40
2019-03-05T20:33:49.112Z,7.14
2019-03-05T20:36:18.284Z,7.47
2019-03-05T20:38:52.651Z,7.65
2019-03-05T20:41:22.836Z,7.95
2019-03-05T20:43:53.185Z,7.85
2019-03-05T20:46:28.546Z,5.66
2019-03-05T20:49:03.986Z,7.48
2019-03-05T20:51:33.193Z,7.17
2019-03-05T20:54:02.534Z,7.53
2019-03-05T20:56:33.022Z,7.04
2019-03-05T20:59:07.514Z,7.23
2019-03-05T21:01:36.671Z,7.53
2019-03-05T21:04:06.189Z,7.44
2019-03-05T21:06:38.425Z,7.52
2019-03-05T21:09:23.257Z,8.15
2019-03-05T21:11:53.270Z,8.14
2019-03-05T21:14:22.583Z,8.16
2019-03-05T21:16:52.189Z,8.32
2019-03-05T21:19:23.246Z,-0.42
2019-03-05T21:21:55.240Z,8.83
2019-03-05T21:24:27.654Z,8.83
2019-03-05T21:27:00.029Z,9.19
2019-03-05T21:29:29.158Z,9.34
2019-03-05T21:31:58.299Z,9.16
2019-03-05T21:34:27.402Z,9.19
2019-03-05T21:37:00.681Z,8.59
2019-03-05T21:39:31.468Z,8.23
2019-03-05T21:42:01.714Z,8.45
2019-03-05T21:44:32.399Z,8.36
2019-03-05T21:47:01.522Z,8.01
2019-03-05T21:49:32.076Z,7.89
2019-03-05T21:52:03.628Z,8.10
2019-03-05T21:54:32.785Z,8.34
2019-03-05T21:57:05.722Z,7.91
2019-03-05T21:59:34.838Z,7.96
2019-03-05T22:02:06.235Z,7.95
2019-03-05T22:04:36.633Z,8.03
2019-03-05T22:07:08.928Z,8.08
2019-03-05T22:09:38.153Z,8.16
2019-03-05T22:12:08.457Z,8.85
2019-03-05T22:14:39.364Z,8.69
2019-03-05T22:17:12.169Z,8.89
2019-03-05T22:19:42.849Z,8.86
2019-03-05T22:22:12.319Z,8.92
2019-03-05T22:24:43.660Z,9.36
2019-03-05T22:27:13.849Z,8.78
2019-03-05T22:29:49.570Z,9.17
2019-03-05T22:32:19.810Z,9.00
2019-03-05T22:34:48.874Z,9.05
2019-03-05T22:37:19.191Z,8.74
2019-03-05T22:39:49.936Z,8.27
2019-03-05T22:42:21.824Z,7.81
2019-03-05T22:44:52.487Z,7.49
2019-03-05T22:47:26.404Z,7.50
2019-03-05T22:49:58.392Z,7.12
2019-03-05T22:52:27.532Z,6.77
2019-03-05T22:54:58.371Z,6.95
2019-03-05T22:57:28.577Z,6.92
2019-03-05T23:00:00.495Z,6.50
2019-03-05T23:02:33.031Z,6.63
2019-03-05T23:05:03.075Z,6.80
2019-03-05T23:07:35.116Z,7.10
2019-03-05T23:10:17.919Z,7.29
2019-03-05T23:12:50.801Z,7.28
2019-03-05T23:15:24.227Z,7.48
2019-03-05T23:17:56.090Z,7.50
2019-03-05T23:20:34.665Z,7.76
2019-03-05T23:23:03.795Z,7.60
2019-03-05T23:25:32.882Z,7.83
2019-03-05T23:28:04.126Z,8.00
2019-03-05T23:30:33.294Z,7.93
2019-03-05T23:33:04.507Z,7.34
2019-03-05T23:35:35.327Z,7.29
2019-03-05T23:38:06.786Z,7.57
2019-03-05T23:40:38.672Z,7.03
2019-03-05T23:43:10.517Z,7.19
2019-03-05T23:45:42.333Z,6.96
2019-03-05T23:48:11.407Z,7.11
2019-03-05T23:50:41.947Z,7.12
2019-03-05T23:53:13.988Z,7.10
2019-03-05T23:55:45.564Z,7.26
2019-03-05T23:58:14.660Z,7.20
